Map

Track Data

SID SEASON NUMBER BASIN SUBBASIN NAME ISO_TIME NATURE LAT LON WMO_WIND WMO_PRES WMO_AGENCY TRACK_TYPE DIST2LAND LANDFALL IFLAG USA_AGENCY USA_ATCF_ID USA_LAT USA_LON USA_RECORD USA_STATUS USA_WIND USA_PRES USA_SSHS USA_R34_NE USA_R34_SE USA_R34_SW USA_R34_NW USA_R50_NE USA_R50_SE USA_R50_SW USA_R50_NW USA_R64_NE USA_R64_SE USA_R64_SW USA_R64_NW USA_POCI USA_ROCI USA_RMW USA_EYE TOKYO_LAT TOKYO_LON TOKYO_GRADE TOKYO_WIND TOKYO_PRES TOKYO_R50_DIR TOKYO_R50_LONG TOKYO_R50_SHORT TOKYO_R30_DIR TOKYO_R30_LONG TOKYO_R30_SHORT TOKYO_LAND CMA_LAT CMA_LON CMA_CAT CMA_WIND CMA_PRES HKO_LAT HKO_LON HKO_CAT HKO_WIND HKO_PRES NEWDELHI_LAT NEWDELHI_LON NEWDELHI_GRADE NEWDELHI_WIND NEWDELHI_PRES NEWDELHI_CI NEWDELHI_DP NEWDELHI_POCI REUNION_LAT REUNION_LON REUNION_TYPE REUNION_WIND REUNION_PRES REUNION_TNUM REUNION_CI REUNION_RMW REUNION_R34_NE REUNION_R34_SE REUNION_R34_SW REUNION_R34_NW REUNION_R50_NE REUNION_R50_SE REUNION_R50_SW REUNION_R50_NW REUNION_R64_NE REUNION_R64_SE REUNION_R64_SW REUNION_R64_NW BOM_LAT BOM_LON BOM_TYPE BOM_WIND BOM_PRES BOM_TNUM BOM_CI BOM_RMW BOM_R34_NE BOM_R34_SE BOM_R34_SW BOM_R34_NW BOM_R50_NE BOM_R50_SE BOM_R50_SW BOM_R50_NW BOM_R64_NE BOM_R64_SE BOM_R64_SW BOM_R64_NW BOM_ROCI BOM_POCI BOM_EYE BOM_POS_METHOD BOM_PRES_METHOD NADI_LAT NADI_LON NADI_CAT NADI_WIND NADI_PRES WELLINGTON_LAT WELLINGTON_LON WELLINGTON_WIND WELLINGTON_PRES DS824_LAT DS824_LON DS824_STAGE DS824_WIND DS824_PRES TD9636_LAT TD9636_LON TD9636_STAGE TD9636_WIND TD9636_PRES TD9635_LAT TD9635_LON TD9635_WIND TD9635_PRES TD9635_ROCI NEUMANN_LAT NEUMANN_LON NEUMANN_CLASS NEUMANN_WIND NEUMANN_PRES MLC_LAT MLC_LON MLC_CLASS MLC_WIND MLC_PRES USA_GUST BOM_GUST BOM_GUST_PER REUNION_GUST REUNION_GUST_PER USA_SEAHGT USA_SEARAD_NE USA_SEARAD_SE USA_SEARAD_SW USA_SEARAD_NW STORM_SPEED STORM_DIR
1859284N19293 1859 24 NA NA NOT_NAMED 1859-10-10 12:00:00 TS 19.0000 -67.3000 main 67 67 _____________O -1 19.0000 -67.3000 TD 30 6 316
1859284N19293 1859 24 NA NA NOT_NAMED 1859-10-10 15:00:00 TS 19.2126 -67.5123 main 91 91 _____________P -1 19.2126 -67.5123 TD 30 6 317
1859284N19293 1859 24 NA NA NOT_NAMED 1859-10-10 18:00:00 TS 19.4000 -67.7000 main 109 109 _____________O -1 19.4000 -67.7000 TD 30 5 317
1859284N19293 1859 24 NA NA NOT_NAMED 1859-10-10 21:00:00 TS 19.5499 -67.8501 main 107 107 _____________P -1 19.5499 -67.8501 TD 30 4 317
1859284N19293 1859 24 NA NA NOT_NAMED 1859-10-11 00:00:00 TS 19.7000 -68.0000 main 118 118 _____________O -1 19.7000 -68.0000 TD 30 5 317
1859284N19293 1859 24 NA NA NOT_NAMED 1859-10-11 03:00:00 TS 19.9000 -68.2000 main 128 128 _____________P -1 19.9000 -68.2000 TD 30 6 317
1859284N19293 1859 24 NA NA NOT_NAMED 1859-10-11 06:00:00 TS 20.1000 -68.4000 main 129 129 _____________O -1 20.1000 -68.4000 TD 30 5 317
1859284N19293 1859 24 NA NA NOT_NAMED 1859-10-11 09:00:00 TS 20.2499 -68.5426 main 130 130 _____________P -1 20.2499 -68.5426 TD 30 4 317
1859284N19293 1859 24 NA NA NOT_NAMED 1859-10-11 12:00:00 TS 20.4000 -68.7000 main 138 138 _____________O -1 20.4000 -68.7000 TD 30 5 313
1859284N19293 1859 24 NA NA NOT_NAMED 1859-10-11 15:00:00 TS 20.6000 -68.9424 main 151 148 _____________P -1 20.6000 -68.9424 TD 30 6 311
1859284N19293 1859 24 NA NA NOT_NAMED 1859-10-11 18:00:00 TS 20.8000 -69.2000 main 158 152 _____________O -1 20.8000 -69.2000 TD 30 6 309
1859284N19293 1859 24 NA NA NOT_NAMED 1859-10-11 21:00:00 TS 20.9499 -69.4002 main 158 158 _____________P -1 20.9499 -69.4002 TD 32 5 309
1859284N19293 1859 24 NA NA NOT_NAMED 1859-10-12 00:00:00 TS 21.1000 -69.6000 main 172 170 _____________O -1 21.1000 -69.6000 TS 35 5 310
1859284N19293 1859 24 NA NA NOT_NAMED 1859-10-12 03:00:00 TS 21.3000 -69.8499 main 187 182 _____________P -1 21.3000 -69.8499 TS 35 6 311
1859284N19293 1859 24 NA NA NOT_NAMED 1859-10-12 06:00:00 TS 21.5000 -70.1000 main 197 194 _____________O -1 21.5000 -70.1000 TS 35 5 309
1859284N19293 1859 24 NA NA NOT_NAMED 1859-10-12 09:00:00 TS 21.6424 -70.3002 main 203 203 _____________P -1 21.6424 -70.3002 TS 35 5 309
1859284N19293 1859 24 NA NA NOT_NAMED 1859-10-12 12:00:00 TS 21.8000 -70.5000 main 223 223 _____________O -1 21.8000 -70.5000 TS 35 6 313
1859284N19293 1859 24 NA NA NOT_NAMED 1859-10-12 15:00:00 TS 22.0350 -70.7499 main 246 239 _____________P -1 22.0350 -70.7499 TS 35 7 317
1859284N19293 1859 24 NA NA NOT_NAMED 1859-10-12 18:00:00 TS 22.3000 -71.0000 main 240 235 _____________O -1 22.3000 -71.0000 TS 35 7 321
1859284N19293 1859 24 NA NA NOT_NAMED 1859-10-12 21:00:00 TS 22.5499 -71.2001 main 235 235 _____________P -1 22.5499 -71.2001 TS 37 6 324
1859284N19293 1859 24 NA NA NOT_NAMED 1859-10-13 00:00:00 TS 22.8000 -71.4000 main 243 243 _____________O -1 22.8000 -71.4000 TS 40 7 320
1859284N19293 1859 24 NA NA NOT_NAMED 1859-10-13 03:00:00 TS 23.0500 -71.6500 main 251 251 _____________P -1 23.0500 -71.6500 TS 40 7 317
1859284N19293 1859 24 NA NA NOT_NAMED 1859-10-13 06:00:00 TS 23.3000 -71.9000 main 260 260 _____________O -1 23.3000 -71.9000 TS 40 7 321
1859284N19293 1859 24 NA NA NOT_NAMED 1859-10-13 09:00:00 TS 23.5724 -72.1075 main 283 280 _____________P -1 23.5724 -72.1075 TS 40 6 324
1859284N19293 1859 24 NA NA NOT_NAMED 1859-10-13 12:00:00 TS 23.8000 -72.3000 main 299 297 _____________O -1 23.8000 -72.3000 TS 40 5 314
1859284N19293 1859 24 NA NA NOT_NAMED 1859-10-13 15:00:00 TS 23.9225 -72.5001 main 306 304 _____________P -1 23.9225 -72.5001 TS 40 4 299
1859284N19293 1859 24 NA NA NOT_NAMED 1859-10-13 18:00:00 TS 24.0000 -72.7000 main 314 313 _____________O -1 24.0000 -72.7000 TS 40 4 296
1859284N19293 1859 24 NA NA NOT_NAMED 1859-10-13 21:00:00 TS 24.1000 -72.9000 main 324 324 _____________P -1 24.1000 -72.9000 TS 42 4 299
1859284N19293 1859 24 NA NA NOT_NAMED 1859-10-14 00:00:00 TS 24.2000 -73.1000 main 335 335 _____________O -1 24.2000 -73.1000 TS 45 4 299
1859284N19293 1859 24 NA NA NOT_NAMED 1859-10-14 03:00:00 TS 24.3075 -73.3075 main 346 346 _____________P -1 24.3075 -73.3075 TS 45 4 299
1859284N19293 1859 24 NA NA NOT_NAMED 1859-10-14 06:00:00 TS 24.4000 -73.5000 main 359 359 _____________O -1 24.4000 -73.5000 TS 45 3 292
1859284N19293 1859 24 NA NA NOT_NAMED 1859-10-14 09:00:00 TS 24.4274 -73.6353 main 360 360 _____________P -1 24.4274 -73.6353 TS 45 3 290
1859284N19293 1859 24 NA NA NOT_NAMED 1859-10-14 12:00:00 TS 24.5000 -73.8000 main 373 364 _____________O -1 24.5000 -73.8000 TS 45 5 306
1859284N19293 1859 24 NA NA NOT_NAMED 1859-10-14 15:00:00 TS 24.7201 -74.0774 main 364 337 _____________P -1 24.7201 -74.0774 TS 45 7 312
1859284N19293 1859 24 NA NA NOT_NAMED 1859-10-14 18:00:00 TS 25.0000 -74.4000 main 337 312 _____________O -1 25.0000 -74.4000 TS 45 8 313
1859284N19293 1859 24 NA NA NOT_NAMED 1859-10-14 21:00:00 TS 25.2576 -74.7224 main 315 293 _____________P -1 25.2576 -74.7224 TS 45 7 313
1859284N19293 1859 24 NA NA NOT_NAMED 1859-10-15 00:00:00 TS 25.5000 -75.0000 main 293 284 _____________O -1 25.5000 -75.0000 TS 45 6 318
1859284N19293 1859 24 NA NA NOT_NAMED 1859-10-15 03:00:00 TS 25.7074 -75.1727 main 284 279 _____________P -1 25.7074 -75.1727 TS 50 5 326
1859284N19293 1859 24 NA NA NOT_NAMED 1859-10-15 06:00:00 TS 25.9000 -75.3000 main 283 279 _____________O -1 25.9000 -75.3000 TS 55 5 328
1859284N19293 1859 24 NA NA NOT_NAMED 1859-10-15 09:00:00 TS 26.1000 -75.4501 main 274 269 _____________P -1 26.1000 -75.4501 TS 55 5 326
1859284N19293 1859 24 NA NA NOT_NAMED 1859-10-15 12:00:00 TS 26.3000 -75.6000 main 275 272 _____________O -1 26.3000 -75.6000 TS 55 5 326
1859284N19293 1859 24 NA NA NOT_NAMED 1859-10-15 15:00:00 TS 26.5075 -75.7575 main 269 268 _____________P -1 26.5075 -75.7575 TS 55 5 326
1859284N19293 1859 24 NA NA NOT_NAMED 1859-10-15 18:00:00 TS 26.7000 -75.9000 main 275 275 _____________O -1 26.7000 -75.9000 TS 55 4 327
1859284N19293 1859 24 NA NA NOT_NAMED 1859-10-15 21:00:00 TS 26.8425 -76.0002 main 275 275 _____________P -1 26.8425 -76.0002 TS 55 4 330
1859284N19293 1859 24 NA NA NOT_NAMED 1859-10-16 00:00:00 TS 27.0000 -76.1000 main 284 284 _____________O -1 27.0000 -76.1000 TS 55 5 332
1859284N19293 1859 24 NA NA NOT_NAMED 1859-10-16 03:00:00 TS 27.2425 -76.2424 main 295 295 _____________P -1 27.2425 -76.2424 TS 55 6 332
1859284N19293 1859 24 NA NA NOT_NAMED 1859-10-16 06:00:00 TS 27.5000 -76.4000 main 311 311 _____________O -1 27.5000 -76.4000 TS 55 5 329
1859284N19293 1859 24 NA NA NOT_NAMED 1859-10-16 09:00:00 TS 27.7000 -76.5501 main 322 322 _____________P -1 27.7000 -76.5501 TS 55 5 326
1859284N19293 1859 24 NA NA NOT_NAMED 1859-10-16 12:00:00 TS 27.9000 -76.7000 main 338 338 _____________O -1 27.9000 -76.7000 TS 55 5 329
1859284N19293 1859 24 NA NA NOT_NAMED 1859-10-16 15:00:00 TS 28.1500 -76.8575 main 342 337 _____________P -1 28.1500 -76.8575 TS 55 6 332
1859284N19293 1859 24 NA NA NOT_NAMED 1859-10-16 18:00:00 TS 28.4000 -77.0000 main 341 322 _____________O -1 28.4000 -77.0000 TS 55 5 328
1859284N19293 1859 24 NA NA NOT_NAMED 1859-10-16 21:00:00 TS 28.5849 -77.1671 main 322 322 _____________P -1 28.5849 -77.1671 TS 55 4 336
1859284N19293 1859 24 NA NA NOT_NAMED 1859-10-17 00:00:00 TS 28.8000 -77.2000 main 323 323 _____________O -1 28.8000 -77.2000 TS 55 6 19
1859284N19293 1859 24 NA NA NOT_NAMED 1859-10-17 03:00:00 TS 29.1201 -76.9603 main 347 347 _____________P -1 29.1201 -76.9603 TS 55 9 37
1859284N19293 1859 24 NA NA NOT_NAMED 1859-10-17 06:00:00 TS 29.5000 -76.6000 main 394 394 _____________O -1 29.5000 -76.6000 TS 55 10 36
1859284N19293 1859 24 NA NA NOT_NAMED 1859-10-17 09:00:00 TS 29.8999 -76.2999 main 436 436 _____________P -1 29.8999 -76.2999 TS 55 10 33
1859284N19293 1859 24 NA NA NOT_NAMED 1859-10-17 12:00:00 TS 30.3000 -76.0000 main 440 422 _____________O -1 30.3000 -76.0000 TS 55 9 34
1859284N19293 1859 24 NA NA NOT_NAMED 1859-10-17 15:00:00 TS 30.6574 -75.6997 main 417 404 _____________P -1 30.6574 -75.6997 TS 52 9 36
1859284N19293 1859 24 NA NA NOT_NAMED 1859-10-17 18:00:00 TS 31.0000 -75.4000 main 404 390 _____________O -1 31.0000 -75.4000 TS 50 9 37
1859284N19293 1859 24 NA NA NOT_NAMED 1859-10-17 21:00:00 TS 31.3476 -75.1005 main 396 369 _____________P -1 31.3476 -75.1005 TS 45 9 36
1859284N19293 1859 24 NA NA NOT_NAMED 1859-10-18 00:00:00 TS 31.7000 -74.8000 main 369 _____________O -1 31.7000 -74.8000 TS 40 9 36

About IBTrACS Database

This database is a web-friendly format of International Best Track Archive for Climate Stewardship (IBTrACS), a global best track data archive curated by NOAA dating back to 1842.

Updated: 2021-10-27